createdAt,value
2023-04-10T00:01:15.121Z,102057.56
2023-04-10T00:03:43.327Z,102058.72
2023-04-10T00:06:11.316Z,102059.75
2023-04-10T00:08:39.245Z,102056.47
2023-04-10T00:11:08.643Z,102053.63
2023-04-10T00:13:36.585Z,102057.16
2023-04-10T00:16:04.794Z,102050.41
2023-04-10T00:18:32.819Z,102054.00
2023-04-10T00:21:00.734Z,102045.91
2023-04-10T00:23:28.645Z,102049.31
2023-04-10T00:25:56.488Z,102049.53
2023-04-10T00:28:25.784Z,102042.91
2023-04-10T00:30:54.608Z,102039.66
2023-04-10T00:33:22.621Z,102035.69
2023-04-10T00:35:51.068Z,102034.88
2023-04-10T00:38:18.941Z,102031.66
2023-04-10T00:40:46.803Z,102030.78
2023-04-10T00:43:14.783Z,102029.97
2023-04-10T00:45:44.755Z,102033.00
2023-04-10T00:48:13.303Z,102033.22
2023-04-10T00:50:43.137Z,102028.00
2023-04-10T00:53:11.168Z,102019.22
2023-04-10T00:55:39.354Z,102015.00
2023-04-10T00:58:07.555Z,102010.00
2023-04-10T01:00:35.538Z,102016.66
2023-04-10T01:03:05.456Z,102005.31
2023-04-10T01:05:40.470Z,102010.47
2023-04-10T01:08:18.299Z,102011.56
2023-04-10T01:10:54.144Z,102017.44
2023-04-10T01:13:28.566Z,102011.78
2023-04-10T01:15:59.203Z,102017.22
2023-04-10T01:18:35.987Z,102018.19
2023-04-10T01:21:08.078Z,102017.28
2023-04-10T01:23:55.361Z,102016.44
2023-04-10T01:26:38.083Z,102013.78
2023-04-10T01:29:10.359Z,102016.25
2023-04-10T01:31:42.878Z,102015.69
2023-04-10T01:34:16.654Z,102015.84
2023-04-10T01:36:50.582Z,102021.22
2023-04-10T01:39:21.337Z,102012.47
2023-04-10T01:41:52.984Z,102016.81
2023-04-10T01:44:29.133Z,102008.47
2023-04-10T01:46:58.602Z,102019.06
2023-04-10T01:49:29.167Z,102017.56
2023-04-10T01:52:03.965Z,102013.03
2023-04-10T01:54:33.800Z,102017.19
2023-04-10T01:57:04.896Z,102009.00
2023-04-10T01:59:42.445Z,102009.88
2023-04-10T02:02:11.743Z,102008.69
2023-04-10T02:04:40.470Z,102011.44
2023-04-10T02:07:14.910Z,102006.28
2023-04-10T02:09:48.848Z,102009.97
2023-04-10T02:12:21.391Z,102006.69
2023-04-10T02:14:54.058Z,102013.75
2023-04-10T02:17:29.459Z,102018.19
2023-04-10T02:19:59.212Z,102013.06
2023-04-10T02:22:27.656Z,102016.47
2023-04-10T02:24:55.650Z,102009.34
2023-04-10T02:27:31.026Z,102010.16
2023-04-10T02:30:03.200Z,102001.88
2023-04-10T02:32:33.276Z,102005.41
2023-04-10T02:35:01.878Z,102008.44
2023-04-10T02:37:31.078Z,102005.47
2023-04-10T02:40:01.399Z,102016.88
2023-04-10T02:42:35.799Z,102020.47
2023-04-10T02:45:06.444Z,102016.34
2023-04-10T02:47:39.521Z,102017.22
2023-04-10T02:50:08.617Z,102018.06
2023-04-10T02:52:39.214Z,102021.63
2023-04-10T02:55:08.064Z,102015.47
2023-04-10T02:57:38.322Z,102017.91
2023-04-10T03:00:09.394Z,102014.53
2023-04-10T03:02:57.415Z,102018.56
2023-04-10T03:05:28.920Z,102028.34
2023-04-10T03:07:56.873Z,102012.97
2023-04-10T03:10:25.191Z,102015.59
2023-04-10T03:12:53.102Z,102023.28
2023-04-10T03:15:22.343Z,102019.91
2023-04-10T03:17:50.568Z,102028.88
2023-04-10T03:20:18.525Z,102025.94
2023-04-10T03:22:46.400Z,102017.47
2023-04-10T03:25:14.412Z,102016.28
2023-04-10T03:27:42.268Z,102016.34
2023-04-10T03:30:10.895Z,102013.84
2023-04-10T03:32:43.772Z,102017.44
2023-04-10T03:35:11.867Z,102017.31
2023-04-10T03:37:42.150Z,102015.34
2023-04-10T03:40:11.094Z,102019.78
2023-04-10T03:42:39.336Z,102016.47
2023-04-10T03:45:08.054Z,102017.41
2023-04-10T03:47:36.277Z,102014.69
2023-04-10T03:50:09.062Z,102017.66
2023-04-10T03:52:45.832Z,102021.19
2023-04-10T03:55:19.063Z,102013.03
2023-04-10T03:57:47.530Z,102026.34
2023-04-10T04:00:17.136Z,102024.56
2023-04-10T04:02:48.460Z,102016.66
2023-04-10T04:05:28.486Z,102020.31
2023-04-10T04:08:15.526Z,102022.91
2023-04-10T04:11:11.450Z,102018.69
2023-04-10T04:13:53.063Z,102018.75
2023-04-10T04:16:50.907Z,102021.34
2023-04-10T04:19:40.123Z,102017.13
2023-04-10T04:22:29.606Z,102023.16
2023-04-10T04:25:24.006Z,102021.56
2023-04-10T04:28:19.379Z,102019.78
2023-04-10T04:30:58.432Z,102015.59
2023-04-10T04:33:46.633Z,102020.13
2023-04-10T04:36:46.612Z,102012.78
2023-04-10T04:39:26.846Z,102020.56
2023-04-10T04:42:14.946Z,102020.75
2023-04-10T04:45:01.346Z,102019.63
2023-04-10T04:47:45.909Z,102023.03
2023-04-10T04:50:27.009Z,102023.97
2023-04-10T04:52:54.876Z,102024.84
2023-04-10T04:55:46.973Z,102023.00
2023-04-10T04:58:47.132Z,102026.50
2023-04-10T05:01:35.412Z,102030.59
2023-04-10T05:04:21.922Z,102027.59
2023-04-10T05:07:16.068Z,102028.66
2023-04-10T05:09:53.217Z,102019.25
2023-04-10T05:12:22.436Z,102027.16
2023-04-10T05:14:58.039Z,102022.06
2023-04-10T05:17:38.993Z,102023.66
2023-04-10T05:20:27.639Z,102020.84
2023-04-10T05:23:14.814Z,102022.69
2023-04-10T05:25:52.439Z,102020.00
2023-04-10T05:29:00.325Z,102028.22
2023-04-10T05:31:37.795Z,102031.47
2023-04-10T05:34:17.021Z,102037.66
2023-04-10T05:37:20.259Z,102037.22
2023-04-10T05:40:11.520Z,102030.69
2023-04-10T05:43:11.442Z,102034.66
2023-04-10T05:46:07.999Z,102030.94
2023-04-10T05:48:49.936Z,102033.56
2023-04-10T05:51:24.686Z,102025.59
2023-04-10T05:54:12.584Z,102033.81
2023-04-10T05:57:01.644Z,102032.88
2023-04-10T05:59:44.886Z,102029.44
2023-04-10T06:02:34.174Z,102018.84
2023-04-10T06:05:02.332Z,102023.84
2023-04-10T06:07:34.210Z,102019.13
2023-04-10T06:10:02.381Z,102019.59
2023-04-10T06:12:32.541Z,102015.13
2023-04-10T06:15:01.737Z,102019.69
2023-04-10T06:17:35.408Z,102017.91
2023-04-10T06:20:04.669Z,102020.38
2023-04-10T06:22:32.652Z,102026.00
2023-04-10T06:25:00.585Z,102017.88
2023-04-10T06:27:29.161Z,102018.59
2023-04-10T06:29:57.513Z,102020.84
2023-04-10T06:32:26.101Z,102017.84
2023-04-10T06:34:56.449Z,102021.22
2023-04-10T06:37:29.166Z,102022.69
2023-04-10T06:40:04.815Z,102017.09
2023-04-10T06:42:32.740Z,102009.59
2023-04-10T06:45:08.582Z,102023.38
2023-04-10T06:47:36.677Z,102018.91
2023-04-10T06:50:06.710Z,102011.13
2023-04-10T06:52:34.571Z,102009.22
2023-04-10T06:55:02.465Z,102010.41
2023-04-10T06:57:30.420Z,102004.91
2023-04-10T06:59:58.476Z,102004.94
2023-04-10T07:02:26.538Z,102008.72
2023-04-10T07:04:54.660Z,102004.41
2023-04-10T07:07:24.008Z,102009.06
2023-04-10T07:09:51.894Z,102010.44
2023-04-10T07:12:19.801Z,101998.56
2023-04-10T07:14:47.662Z,102000.97
2023-04-10T07:17:15.503Z,102000.88
2023-04-10T07:19:43.403Z,102002.78
2023-04-10T07:22:11.497Z,102003.84
2023-04-10T07:24:40.849Z,102000.69
2023-04-10T07:27:08.917Z,102007.97
2023-04-10T07:29:37.035Z,102005.25
2023-04-10T07:32:05.495Z,102003.03
2023-04-10T07:34:33.549Z,102005.97
2023-04-10T07:37:01.458Z,102005.75
2023-04-10T07:39:29.368Z,101995.78
2023-04-10T07:41:58.614Z,101998.19
2023-04-10T07:44:27.363Z,101994.81
2023-04-10T07:46:56.060Z,101987.69
2023-04-10T07:49:24.324Z,101993.44
2023-04-10T07:51:52.462Z,101986.34
2023-04-10T07:54:20.644Z,101991.47
2023-04-10T07:56:48.641Z,101985.22
2023-04-10T07:59:17.959Z,101982.75
2023-04-10T08:01:45.909Z,101986.09
2023-04-10T08:04:13.961Z,101982.38
2023-04-10T08:06:57.099Z,101984.22
2023-04-10T08:13:01.159Z,101973.44
2023-04-10T08:28:02.705Z,101961.34
2023-04-10T08:30:35.630Z,101962.66
2023-04-10T08:33:03.982Z,101961.66
2023-04-10T08:35:31.979Z,101969.03
2023-04-10T08:38:12.851Z,101968.84
2023-04-10T08:40:42.715Z,101966.06
2023-04-10T08:43:10.651Z,101965.28
2023-04-10T08:45:43.960Z,101967.06
2023-04-10T08:48:13.158Z,101963.13
2023-04-10T08:50:44.000Z,101958.63
2023-04-10T08:53:14.023Z,101956.03
2023-04-10T08:55:43.169Z,101959.53
2023-04-10T08:58:13.646Z,101957.66
2023-04-10T09:00:43.090Z,101952.03
2023-04-10T09:03:14.210Z,101951.69
2023-04-10T09:05:42.391Z,101941.31
2023-04-10T09:08:10.852Z,101941.59
2023-04-10T09:10:39.271Z,101938.03
2023-04-10T09:13:07.565Z,101934.19
2023-04-10T09:16:01.166Z,101929.19
2023-04-10T09:18:43.763Z,101923.75
2023-04-10T09:21:13.137Z,101921.56
2023-04-10T09:23:42.663Z,101920.63
2023-04-10T09:26:30.542Z,101899.38
2023-04-10T09:29:03.099Z,101901.31
2023-04-10T09:31:34.665Z,101906.34
2023-04-10T09:34:14.072Z,101902.88
2023-04-10T09:36:42.819Z,101899.66
2023-04-10T09:39:12.013Z,101891.88
2023-04-10T09:41:57.946Z,101891.94
2023-04-10T09:44:33.947Z,101888.78
2023-04-10T09:47:17.796Z,101878.47
2023-04-10T09:49:48.301Z,101866.03
2023-04-10T09:52:20.801Z,101875.72
2023-04-10T09:54:52.077Z,101878.56
2023-04-10T09:57:21.807Z,101864.81
2023-04-10T09:59:51.830Z,101872.97
2023-04-10T10:02:22.466Z,101864.47
2023-04-10T10:04:51.235Z,101870.28
2023-04-10T10:07:21.140Z,101865.56
2023-04-10T10:09:50.321Z,101856.94
2023-04-10T10:12:23.351Z,101851.94
2023-04-10T10:14:58.456Z,101847.03
2023-04-10T10:17:32.837Z,101846.06
2023-04-10T10:20:05.672Z,101848.75
2023-04-10T10:22:33.905Z,101844.56
2023-04-10T10:25:03.507Z,101842.88
2023-04-10T10:27:32.895Z,101843.00
2023-04-10T10:30:08.543Z,101837.38
2023-04-10T10:32:46.827Z,101832.31
2023-04-10T10:35:14.940Z,101840.13
2023-04-10T10:37:45.687Z,101832.78
2023-04-10T10:40:18.812Z,101833.63
2023-04-10T10:42:51.760Z,101823.47
2023-04-10T10:45:25.044Z,101813.44
2023-04-10T10:47:55.867Z,101810.31
2023-04-10T10:50:24.970Z,101810.00
2023-04-10T10:52:56.039Z,101801.88
2023-04-10T10:55:35.728Z,101800.97
2023-04-10T10:58:05.416Z,101795.88
2023-04-10T11:01:10.053Z,101791.19
2023-04-10T11:03:40.769Z,101791.16
2023-04-10T11:06:09.873Z,101785.91
2023-04-10T11:08:48.668Z,101788.56
2023-04-10T11:11:18.563Z,101784.19
2023-04-10T11:14:21.290Z,101786.19
2023-04-10T11:16:49.562Z,101793.84
2023-04-10T11:19:22.819Z,101785.72
2023-04-10T11:22:05.231Z,101777.53
2023-04-10T11:24:59.525Z,101768.22
2023-04-10T11:27:54.404Z,101769.94
2023-04-10T11:30:34.609Z,101763.44
2023-04-10T11:33:04.760Z,101762.16
2023-04-10T11:35:34.355Z,101770.13
2023-04-10T11:38:16.153Z,101758.59
2023-04-10T11:40:58.181Z,101751.47
2023-04-10T11:43:26.520Z,101749.09
2023-04-10T11:46:01.513Z,101747.44
2023-04-10T11:48:29.947Z,101734.44
2023-04-10T11:51:01.744Z,101743.03
2023-04-10T11:53:30.363Z,101737.56
2023-04-10T11:55:58.689Z,101732.56
2023-04-10T11:58:28.777Z,101728.66
2023-04-10T12:00:59.203Z,101719.75
2023-04-10T12:03:43.338Z,101720.72
2023-04-10T12:06:14.438Z,101718.81
2023-04-10T12:08:47.625Z,101700.94
2023-04-10T12:11:20.266Z,101702.47
2023-04-10T12:13:49.126Z,101695.66
2023-04-10T12:16:17.324Z,101698.47
2023-04-10T12:18:45.771Z,101699.47
2023-04-10T12:21:15.593Z,101686.59
2023-04-10T12:23:43.842Z,101693.47
2023-04-10T12:26:14.969Z,101684.63
2023-04-10T12:28:50.357Z,101684.63
2023-04-10T12:31:18.563Z,101673.69
2023-04-10T12:33:46.999Z,101674.56
2023-04-10T12:36:23.785Z,101677.47
2023-04-10T12:38:51.802Z,101671.13
2023-04-10T12:41:23.335Z,101672.44
2023-04-10T12:43:52.938Z,101665.66
2023-04-10T12:46:26.471Z,101653.53
2023-04-10T12:48:55.104Z,101647.81
2023-04-10T12:51:48.914Z,101646.56
2023-04-10T12:54:30.523Z,101647.88
2023-04-10T12:56:59.041Z,101634.63
2023-04-10T12:59:27.862Z,101637.91
2023-04-10T13:01:56.388Z,101630.72
2023-04-10T13:04:24.603Z,101619.22
2023-04-10T13:06:54.010Z,101618.47
2023-04-10T13:09:22.337Z,101625.28
2023-04-10T13:11:52.387Z,101608.88
2023-04-10T13:14:20.295Z,101604.16
2023-04-10T13:16:49.475Z,101598.19
2023-04-10T13:19:20.116Z,101594.47
2023-04-10T13:21:48.050Z,101587.56
2023-04-10T13:24:17.446Z,101579.25
2023-04-10T13:26:45.556Z,101567.44
2023-04-10T13:29:13.503Z,101568.31
2023-04-10T13:31:41.477Z,101554.13
2023-04-10T13:34:09.588Z,101553.16
2023-04-10T13:36:37.781Z,101549.59
2023-04-10T13:39:05.881Z,101536.25
2023-04-10T13:41:35.347Z,101527.97
2023-04-10T13:44:03.288Z,101525.63
2023-04-10T13:46:31.316Z,101525.41
2023-04-10T13:48:59.712Z,101526.34
2023-04-10T13:51:29.641Z,101517.13
2023-04-10T13:53:58.777Z,101520.78
2023-04-10T13:56:26.846Z,101518.09
2023-04-10T13:58:58.664Z,101514.25
2023-04-10T14:01:26.713Z,101516.19
2023-04-10T14:03:55.099Z,101509.75
2023-04-10T14:06:23.226Z,101500.53
2023-04-10T14:08:51.323Z,101492.69
2023-04-10T14:11:19.260Z,101485.88
2023-04-10T14:13:47.295Z,101488.13
2023-04-10T14:16:16.711Z,101480.03
2023-04-10T14:18:44.636Z,101489.34
2023-04-10T14:21:12.669Z,101478.53
2023-04-10T14:23:41.772Z,101474.41
2023-04-10T14:26:09.811Z,101475.13
2023-04-10T14:28:37.826Z,101467.97
2023-04-10T14:31:06.403Z,101478.31
2023-04-10T14:33:36.056Z,101476.03
2023-04-10T14:36:04.302Z,101464.75
2023-04-10T14:38:32.249Z,101458.38
2023-04-10T14:41:00.148Z,101452.28
2023-04-10T14:43:28.406Z,101441.81
2023-04-10T14:45:56.411Z,101443.91
2023-04-10T14:48:24.455Z,101433.78
2023-04-10T14:50:54.998Z,101433.69
2023-04-10T14:53:23.162Z,101429.44
2023-04-10T14:55:51.076Z,101436.03
2023-04-10T14:58:19.063Z,101422.97
2023-04-10T15:00:47.004Z,101417.25
2023-04-10T15:03:14.976Z,101417.38
2023-04-10T15:05:42.952Z,101404.53
2023-04-10T15:08:12.645Z,101409.81
2023-04-10T15:10:42.101Z,101405.16
2023-04-10T15:13:10.026Z,101412.69
2023-04-10T15:15:37.926Z,101403.53
2023-04-10T15:18:05.963Z,101402.78
2023-04-10T15:20:33.870Z,101388.41
2023-04-10T15:23:02.559Z,101385.91
2023-04-10T15:25:33.316Z,101388.72
2023-04-10T15:28:02.120Z,101392.28
2023-04-10T15:30:31.433Z,101374.53
2023-04-10T15:32:59.566Z,101382.47
2023-04-10T15:35:28.657Z,101376.78
2023-04-10T15:37:56.606Z,101366.88
2023-04-10T15:40:24.579Z,101357.59
2023-04-10T15:42:53.856Z,101360.09
2023-04-10T15:45:21.952Z,101351.00
2023-04-10T15:47:50.016Z,101344.53
2023-04-10T15:50:18.111Z,101338.84
2023-04-10T15:52:46.136Z,101332.00
2023-04-10T15:55:14.352Z,101338.09
2023-04-10T15:57:42.403Z,101337.88
2023-04-10T16:00:13.288Z,101325.47
2023-04-10T16:02:41.543Z,101321.03
2023-04-10T16:05:10.107Z,101310.78
2023-04-10T16:07:40.627Z,101310.13
2023-04-10T16:10:10.108Z,101308.91
2023-04-10T16:12:38.193Z,101297.50
2023-04-10T16:15:08.097Z,101299.88
2023-04-10T16:17:37.667Z,101290.00
2023-04-10T16:20:06.752Z,101285.19
2023-04-10T16:22:35.883Z,101275.31
2023-04-10T16:27:36.791Z,101262.78
2023-04-10T16:30:06.357Z,101265.44
2023-04-10T16:32:34.758Z,101263.22
2023-04-10T16:35:04.423Z,101244.56
2023-04-10T16:37:32.557Z,101250.59
2023-04-10T16:40:00.643Z,101249.81
2023-04-10T16:42:28.897Z,101251.34
2023-04-10T16:44:58.141Z,101245.53
2023-04-10T16:47:26.306Z,101244.22
2023-04-10T16:49:54.170Z,101239.34
2023-04-10T16:52:23.639Z,101234.19
2023-04-10T16:54:51.636Z,101234.66
2023-04-10T16:57:19.680Z,101233.22
2023-04-10T16:59:47.608Z,101224.69
2023-04-10T17:02:15.587Z,101222.63
2023-04-10T17:04:43.756Z,101222.97
2023-04-10T17:07:11.909Z,101223.69
2023-04-10T17:09:41.190Z,101213.97
2023-04-10T17:12:09.142Z,101213.03
2023-04-10T17:14:37.214Z,101207.47
2023-04-10T17:17:06.346Z,101193.25
2023-04-10T17:19:34.383Z,101196.56
2023-04-10T17:22:02.392Z,101190.00
2023-04-10T17:24:31.385Z,101186.34
2023-04-10T17:27:02.128Z,101183.13
2023-04-10T17:29:30.133Z,101178.56
2023-04-10T17:31:58.162Z,101172.88
2023-04-10T17:34:26.452Z,101173.72
2023-04-10T17:36:54.453Z,101174.38
2023-04-10T17:39:22.387Z,101167.66
2023-04-10T17:41:50.451Z,101158.72
2023-04-10T17:44:20.543Z,101157.31
2023-04-10T17:46:48.593Z,101152.09
2023-04-10T17:49:16.660Z,101146.69
2023-04-10T17:51:44.703Z,101150.81
2023-04-10T17:54:12.806Z,101148.16
2023-04-10T17:56:40.788Z,101142.44
2023-04-10T17:59:09.050Z,101131.91
2023-04-10T18:01:38.560Z,101136.19
2023-04-10T18:04:08.690Z,101133.97
2023-04-10T18:06:36.783Z,101129.25
2023-04-10T18:09:05.020Z,101122.13
2023-04-10T18:11:32.942Z,101109.38
2023-04-10T18:14:00.909Z,101115.25
2023-04-10T18:16:29.757Z,101119.84
2023-04-10T18:18:59.121Z,101116.56
2023-04-10T18:21:27.225Z,101120.00
2023-04-10T18:23:55.427Z,101115.88
2023-04-10T18:26:24.354Z,101124.88
2023-04-10T18:28:52.405Z,101114.81
2023-04-10T18:31:20.510Z,101112.91
2023-04-10T18:33:59.849Z,101105.09
2023-04-10T18:36:33.437Z,101111.28
2023-04-10T18:39:01.436Z,101109.88
2023-04-10T18:41:29.437Z,101110.25
2023-04-10T18:44:05.099Z,101115.94
2023-04-10T18:46:33.956Z,101101.34
2023-04-10T18:49:03.075Z,101100.50
2023-04-10T18:51:33.449Z,101105.88
2023-04-10T18:54:04.550Z,101097.81
2023-04-10T18:56:35.371Z,101097.34
2023-04-10T18:59:03.304Z,101097.72
2023-04-10T19:01:31.283Z,101088.81
2023-04-10T19:03:59.717Z,101088.56
2023-04-10T19:06:28.185Z,101084.28
2023-04-10T19:08:56.764Z,101078.16
2023-04-10T19:11:26.227Z,101069.63
2023-04-10T19:13:54.853Z,101073.66
2023-04-10T19:16:23.456Z,101064.03
2023-04-10T19:18:51.654Z,101057.56
2023-04-10T19:21:19.915Z,101059.59
2023-04-10T19:23:48.200Z,101056.56
2023-04-10T19:26:16.275Z,101054.44
2023-04-10T19:28:45.616Z,101055.75
2023-04-10T19:31:13.877Z,101045.53
2023-04-10T19:33:42.171Z,101042.66
2023-04-10T19:36:10.663Z,101038.94
2023-04-10T19:38:40.742Z,101030.53
2023-04-10T19:41:15.195Z,101024.69
2023-04-10T19:43:43.355Z,101018.81
2023-04-10T19:46:18.549Z,101023.88
2023-04-10T19:48:46.948Z,101017.63
2023-04-10T19:51:15.144Z,101018.75
2023-04-10T19:53:43.293Z,101007.59
2023-04-10T19:56:11.363Z,101016.00
2023-04-10T19:58:42.118Z,101010.00
2023-04-10T20:01:12.326Z,101003.34
2023-04-10T20:03:41.769Z,100997.97
2023-04-10T20:06:10.240Z,101001.00
2023-04-10T20:08:38.523Z,100988.16
2023-04-10T20:11:07.318Z,100985.06
2023-04-10T20:13:39.242Z,100975.66
2023-04-10T20:16:08.613Z,100966.28
2023-04-10T20:18:39.286Z,100955.50
2023-04-10T20:21:09.219Z,100955.88
2023-04-10T20:23:38.678Z,100948.44
2023-04-10T20:26:07.126Z,100946.41
2023-04-10T20:28:35.291Z,100943.31
2023-04-10T20:31:03.339Z,100948.00
2023-04-10T20:33:31.380Z,100938.75
2023-04-10T20:35:59.386Z,100930.09
2023-04-10T20:38:28.818Z,100937.88
2023-04-10T20:40:56.701Z,100939.81
2023-04-10T20:43:24.592Z,100926.59
2023-04-10T20:45:52.491Z,100914.25
2023-04-10T20:48:20.390Z,100911.41
2023-04-10T20:50:49.648Z,100917.09
2023-04-10T20:53:22.400Z,100911.09
2023-04-10T20:55:54.115Z,100908.69
2023-04-10T20:58:22.525Z,100907.44
2023-04-10T21:00:52.407Z,100912.34
2023-04-10T21:03:29.711Z,100916.59
2023-04-10T21:05:59.662Z,100918.28
2023-04-10T21:08:27.639Z,100916.66
2023-04-10T21:10:59.282Z,100917.53
2023-04-10T21:13:27.260Z,100915.19
2023-04-10T21:15:55.194Z,100909.00
2023-04-10T21:18:23.108Z,100906.63
2023-04-10T21:20:53.327Z,100900.63
2023-04-10T21:23:24.004Z,100898.84
2023-04-10T21:25:53.520Z,100895.41
2023-04-10T21:28:23.094Z,100893.94
2023-04-10T21:30:51.026Z,100894.31
2023-04-10T21:33:18.908Z,100900.00
2023-04-10T21:35:46.843Z,100890.38
2023-04-10T21:38:14.913Z,100884.31
2023-04-10T21:40:43.691Z,100886.06
2023-04-10T21:43:11.607Z,100873.63
2023-04-10T21:45:40.855Z,100876.47
2023-04-10T21:48:08.874Z,100870.41
2023-04-10T21:50:36.772Z,100876.44
2023-04-10T21:53:04.679Z,100874.28
2023-04-10T21:55:32.660Z,100867.72
2023-04-10T21:58:00.692Z,100858.47
2023-04-10T22:00:29.213Z,100853.13
2023-04-10T22:02:58.577Z,100849.06
2023-04-10T22:05:27.466Z,100842.53
2023-04-10T22:07:56.760Z,100845.06
2023-04-10T22:10:24.613Z,100835.00
2023-04-10T22:12:52.503Z,100836.69
2023-04-10T22:15:20.501Z,100838.47
2023-04-10T22:17:48.488Z,100825.91
2023-04-10T22:20:17.974Z,100819.34
2023-04-10T22:22:45.823Z,100808.31
2023-04-10T22:25:13.694Z,100810.31
2023-04-10T22:27:41.622Z,100804.44
2023-04-10T22:30:10.643Z,100811.19
2023-04-10T22:32:38.542Z,100790.09
2023-04-10T22:35:07.629Z,100788.91
2023-04-10T22:37:36.858Z,100786.38
2023-04-10T22:40:06.300Z,100773.91
2023-04-10T22:42:34.210Z,100775.44
2023-04-10T22:45:02.078Z,100764.66
2023-04-10T22:47:29.943Z,100756.28
2023-04-10T22:49:57.796Z,100755.69
2023-04-10T22:52:25.767Z,100753.06
2023-04-10T22:54:55.021Z,100761.22
2023-04-10T22:57:22.904Z,100749.47
2023-04-10T22:59:50.798Z,100758.53
2023-04-10T23:02:18.868Z,100756.59
2023-04-10T23:04:46.931Z,100750.16
2023-04-10T23:07:14.968Z,100752.84
2023-04-10T23:09:42.876Z,100738.06
2023-04-10T23:12:12.136Z,100741.72
2023-04-10T23:14:40.005Z,100742.41
2023-04-10T23:17:07.886Z,100738.78
2023-04-10T23:19:35.799Z,100722.66
2023-04-10T23:22:03.664Z,100720.03
2023-04-10T23:24:31.550Z,100717.25
2023-04-10T23:26:59.475Z,100711.38
2023-04-10T23:29:28.704Z,100718.38
2023-04-10T23:31:56.521Z,100701.47
2023-04-10T23:34:26.469Z,100697.28
2023-04-10T23:36:54.511Z,100693.53
2023-04-10T23:39:22.468Z,100680.97
2023-04-10T23:41:50.305Z,100673.56
2023-04-10T23:44:18.237Z,100665.38
2023-04-10T23:46:48.136Z,100653.63
2023-04-10T23:49:16.029Z,100649.81
2023-04-10T23:51:44.787Z,100651.16
2023-04-10T23:54:12.839Z,100656.53
2023-04-10T23:56:40.715Z,100640.25
2023-04-10T23:59:08.638Z,100645.31
